createdAt,value
2022-08-16T00:02:35.854Z,93229.34
2022-08-16T00:17:56.379Z,93226.94
2022-08-16T00:32:59.383Z,93236.97
2022-08-16T00:48:02.823Z,93246.63
2022-08-16T01:03:30.149Z,93263.22
2022-08-16T01:18:44.979Z,93269.56
2022-08-16T01:33:46.528Z,93283.91
2022-08-16T01:48:55.864Z,93279.63
2022-08-16T02:03:58.567Z,93283.94
2022-08-16T02:19:16.014Z,93317.34
2022-08-16T02:34:19.809Z,93361.66
2022-08-16T02:50:52.113Z,93343.13
2022-08-16T03:04:55.927Z,93327.53
2022-08-16T03:20:00.205Z,93304.22
2022-08-16T03:35:05.173Z,93306.47
2022-08-16T03:50:25.662Z,93313.19
2022-08-16T04:05:28.092Z,93316.53
2022-08-16T04:20:34.036Z,93305.50
2022-08-16T04:35:39.520Z,93305.50
2022-08-16T04:50:43.715Z,93269.38
2022-08-16T05:05:59.614Z,93319.91
2022-08-16T05:21:09.627Z,93318.41
2022-08-16T05:36:14.546Z,93313.22
2022-08-16T05:51:38.822Z,93326.34
2022-08-16T06:06:39.973Z,93328.00
2022-08-16T06:21:41.739Z,93323.69
2022-08-16T06:36:43.353Z,93319.81
2022-08-16T06:51:50.958Z,93305.13
2022-08-16T07:06:54.380Z,93287.31
2022-08-16T07:21:59.830Z,93277.59
2022-08-16T07:37:04.412Z,93279.63
2022-08-16T07:52:18.643Z,93284.69
2022-08-16T08:07:22.005Z,93298.63
2022-08-16T08:22:29.054Z,93292.19
2022-08-16T08:37:41.729Z,93297.88
2022-08-16T08:52:53.893Z,93300.78
2022-08-16T09:08:01.595Z,93299.00
2022-08-16T09:23:07.541Z,93306.03
2022-08-16T09:38:10.021Z,93291.56
2022-08-16T09:53:16.679Z,93299.81
2022-08-16T10:08:25.420Z,93285.84
2022-08-16T10:23:29.709Z,93284.81
2022-08-16T10:38:33.035Z,93281.13
2022-08-16T10:53:35.772Z,93282.84
2022-08-16T11:08:45.463Z,93284.81
2022-08-16T11:23:57.845Z,93268.63
2022-08-16T11:39:00.811Z,93262.72
2022-08-16T11:54:05.160Z,93280.44
2022-08-16T12:09:10.471Z,93262.19
2022-08-16T12:24:14.010Z,93235.34
2022-08-16T12:39:20.501Z,93226.09
2022-08-16T12:54:23.586Z,93211.47
2022-08-16T13:09:26.790Z,93203.59
2022-08-16T13:24:30.439Z,93197.56
2022-08-16T13:39:32.895Z,93186.50
2022-08-16T13:54:34.703Z,93175.66
2022-08-16T14:09:36.921Z,93187.81
2022-08-16T14:24:38.910Z,93190.97
2022-08-16T14:39:41.468Z,93198.69
2022-08-16T14:54:43.928Z,93201.91
2022-08-16T15:10:01.064Z,93209.50
2022-08-16T15:25:30.147Z,93207.50
2022-08-16T15:40:35.378Z,93204.28
2022-08-16T15:55:37.507Z,93202.81
2022-08-16T16:10:39.891Z,93220.03
2022-08-16T16:25:44.670Z,93233.25
2022-08-16T16:40:53.812Z,93222.81
2022-08-16T16:55:55.986Z,93239.97
2022-08-16T17:10:59.751Z,93240.31
2022-08-16T17:26:01.500Z,93261.59
2022-08-16T17:41:03.878Z,93269.56
2022-08-16T17:56:10.438Z,93263.88
2022-08-16T18:11:13.427Z,93279.88
2022-08-16T18:26:15.138Z,93303.66
2022-08-16T18:41:17.165Z,93332.72
2022-08-16T18:56:18.681Z,93349.00
2022-08-16T19:11:23.248Z,93373.75
2022-08-16T19:26:26.340Z,93398.88
2022-08-16T19:41:28.144Z,93395.16
2022-08-16T19:56:29.787Z,93398.13
2022-08-16T20:11:31.674Z,93392.91
2022-08-16T20:26:34.808Z,93395.41
2022-08-16T20:41:36.427Z,93393.41
2022-08-16T20:56:38.044Z,93410.34
2022-08-16T21:11:40.776Z,93416.81
2022-08-16T21:26:47.386Z,93421.81
2022-08-16T21:41:57.904Z,93414.56
2022-08-16T21:56:59.945Z,93416.16
2022-08-16T22:16:07.854Z,93393.97
2022-08-16T22:31:10.817Z,93398.47
2022-08-16T22:46:12.409Z,93392.09
2022-08-16T23:01:14.588Z,93388.31
2022-08-16T23:16:16.321Z,93381.13
2022-08-16T23:31:18.070Z,93379.19
2022-08-16T23:46:19.768Z,93377.06
